sensor_id;sensor_type;location;lat;lon;timestamp;pressure;altitude;pressure_sealevel;temperature;humidity
60246;BME280;46107;53.356;-1.524;2023-05-02T00:02:06;99688.18;;;9.46;58.64
60246;BME280;46107;53.356;-1.524;2023-05-02T00:04:33;99689.97;;;10.13;56.67
60246;BME280;46107;53.356;-1.524;2023-05-02T00:07:03;99691.09;;;9.38;57.49
60246;BME280;46107;53.356;-1.524;2023-05-02T00:09:30;99698.37;;;8.33;61.04
60246;BME280;46107;53.356;-1.524;2023-05-02T00:11:58;99693.80;;;9.64;57.01
60246;BME280;46107;53.356;-1.524;2023-05-02T00:14:26;99694.66;;;9.46;57.57
60246;BME280;46107;53.356;-1.524;2023-05-02T00:16:53;99694.06;;;10.25;55.85
60246;BME280;46107;53.356;-1.524;2023-05-02T00:19:21;99703.28;;;9.74;57.06
60246;BME280;46107;53.356;-1.524;2023-05-02T00:21:49;99707.65;;;8.84;59.63
60246;BME280;46107;53.356;-1.524;2023-05-02T00:24:17;99703.37;;;9.53;57.28
60246;BME280;46107;53.356;-1.524;2023-05-02T00:26:44;99701.60;;;9.29;58.71
60246;BME280;46107;53.356;-1.524;2023-05-02T00:29:12;99711.99;;;8.78;59.83
60246;BME280;46107;53.356;-1.524;2023-05-02T00:31:40;99714.49;;;8.22;62.41
60246;BME280;46107;53.356;-1.524;2023-05-02T00:34:09;99716.79;;;9.06;60.10
60246;BME280;46107;53.356;-1.524;2023-05-02T00:36:38;99720.64;;;8.81;61.20
60246;BME280;46107;53.356;-1.524;2023-05-02T00:39:06;99721.00;;;8.48;61.99
60246;BME280;46107;53.356;-1.524;2023-05-02T00:41:34;99715.63;;;8.56;61.70
60246;BME280;46107;53.356;-1.524;2023-05-02T00:44:03;99715.41;;;9.03;61.42
60246;BME280;46107;53.356;-1.524;2023-05-02T00:46:31;99709.78;;;8.98;60.36
60246;BME280;46107;53.356;-1.524;2023-05-02T00:49:00;99717.01;;;8.82;60.43
60246;BME280;46107;53.356;-1.524;2023-05-02T00:51:28;99718.87;;;8.17;61.83
60246;BME280;46107;53.356;-1.524;2023-05-02T00:53:57;99719.24;;;7.62;64.35
60246;BME280;46107;53.356;-1.524;2023-05-02T00:56:26;99719.99;;;8.58;60.90
60246;BME280;46107;53.356;-1.524;2023-05-02T00:58:55;99722.30;;;8.09;62.66
60246;BME280;46107;53.356;-1.524;2023-05-02T01:01:54;99727.49;;;8.57;62.11
60246;BME280;46107;53.356;-1.524;2023-05-02T01:04:33;99727.07;;;8.26;62.42
60246;BME280;46107;53.356;-1.524;2023-05-02T01:07:16;99726.77;;;7.18;64.64
60246;BME280;46107;53.356;-1.524;2023-05-02T01:09:52;99729.17;;;8.45;63.56
60246;BME280;46107;53.356;-1.524;2023-05-02T01:12:27;99729.31;;;8.83;62.14
60246;BME280;46107;53.356;-1.524;2023-05-02T01:15:03;99729.11;;;7.51;67.34
60246;BME280;46107;53.356;-1.524;2023-05-02T01:17:35;99731.24;;;8.36;63.75
60246;BME280;46107;53.356;-1.524;2023-05-02T01:20:08;99733.17;;;7.93;65.18
60246;BME280;46107;53.356;-1.524;2023-05-02T01:22:40;99731.06;;;7.57;67.87
60246;BME280;46107;53.356;-1.524;2023-05-02T01:25:18;99733.42;;;8.75;64.37
60246;BME280;46107;53.356;-1.524;2023-05-02T01:27:55;99735.77;;;9.00;64.19
60246;BME280;46107;53.356;-1.524;2023-05-02T01:30:25;99736.42;;;8.15;62.86
60246;BME280;46107;53.356;-1.524;2023-05-02T01:32:56;99735.30;;;8.63;61.42
60246;BME280;46107;53.356;-1.524;2023-05-02T01:35:26;99736.24;;;8.82;60.82
60246;BME280;46107;53.356;-1.524;2023-05-02T01:37:55;99735.28;;;7.64;63.71
60246;BME280;46107;53.356;-1.524;2023-05-02T01:40:24;99736.29;;;7.35;64.80
60246;BME280;46107;53.356;-1.524;2023-05-02T01:42:54;99736.79;;;8.03;63.83
60246;BME280;46107;53.356;-1.524;2023-05-02T01:45:26;99742.48;;;8.67;61.34
60246;BME280;46107;53.356;-1.524;2023-05-02T01:47:55;99743.09;;;8.45;62.33
60246;BME280;46107;53.356;-1.524;2023-05-02T01:50:24;99740.91;;;7.53;63.60
60246;BME280;46107;53.356;-1.524;2023-05-02T01:52:52;99739.64;;;8.02;63.16
60246;BME280;46107;53.356;-1.524;2023-05-02T01:55:21;99744.16;;;8.25;62.49
60246;BME280;46107;53.356;-1.524;2023-05-02T01:57:53;99740.30;;;7.89;62.29
60246;BME280;46107;53.356;-1.524;2023-05-02T02:00:22;99740.29;;;7.65;63.42
60246;BME280;46107;53.356;-1.524;2023-05-02T02:02:51;99742.17;;;7.16;64.80
60246;BME280;46107;53.356;-1.524;2023-05-02T02:05:22;99746.13;;;7.38;62.82
60246;BME280;46107;53.356;-1.524;2023-05-02T02:07:50;99751.25;;;6.18;66.65
60246;BME280;46107;53.356;-1.524;2023-05-02T02:10:18;99745.19;;;7.53;62.79
60246;BME280;46107;53.356;-1.524;2023-05-02T02:12:51;99746.69;;;8.21;61.66
60246;BME280;46107;53.356;-1.524;2023-05-02T02:15:24;99755.51;;;7.06;65.20
60246;BME280;46107;53.356;-1.524;2023-05-02T02:17:59;99755.94;;;8.87;60.58
60246;BME280;46107;53.356;-1.524;2023-05-02T02:20:28;99758.85;;;6.48;66.39
60246;BME280;46107;53.356;-1.524;2023-05-02T02:22:56;99757.97;;;7.13;67.22
60246;BME280;46107;53.356;-1.524;2023-05-02T02:25:30;99757.68;;;7.21;66.24
60246;BME280;46107;53.356;-1.524;2023-05-02T02:28:01;99762.29;;;8.19;63.49
60246;BME280;46107;53.356;-1.524;2023-05-02T02:30:29;99771.44;;;7.84;63.69
60246;BME280;46107;53.356;-1.524;2023-05-02T02:32:59;99775.40;;;8.71;61.30
60246;BME280;46107;53.356;-1.524;2023-05-02T02:35:32;99776.46;;;8.08;61.84
60246;BME280;46107;53.356;-1.524;2023-05-02T02:38:10;99778.74;;;6.64;65.57
60246;BME280;46107;53.356;-1.524;2023-05-02T02:40:46;99777.03;;;8.34;61.87
60246;BME280;46107;53.356;-1.524;2023-05-02T02:43:26;99777.42;;;7.40;63.11
60246;BME280;46107;53.356;-1.524;2023-05-02T02:46:07;99778.60;;;8.26;60.93
60246;BME280;46107;53.356;-1.524;2023-05-02T02:48:45;99784.54;;;8.18;60.75
60246;BME280;46107;53.356;-1.524;2023-05-02T02:51:24;99781.61;;;7.89;61.40
60246;BME280;46107;53.356;-1.524;2023-05-02T02:54:04;99781.85;;;8.12;61.53
60246;BME280;46107;53.356;-1.524;2023-05-02T02:56:37;99779.12;;;8.38;60.05
60246;BME280;46107;53.356;-1.524;2023-05-02T02:59:13;99777.66;;;7.48;61.83
60246;BME280;46107;53.356;-1.524;2023-05-02T03:01:47;99781.26;;;7.75;63.42
60246;BME280;46107;53.356;-1.524;2023-05-02T03:04:19;99785.81;;;6.75;64.90
60246;BME280;46107;53.356;-1.524;2023-05-02T03:06:48;99782.70;;;8.01;62.36
60246;BME280;46107;53.356;-1.524;2023-05-02T03:09:16;99785.26;;;6.80;63.43
60246;BME280;46107;53.356;-1.524;2023-05-02T03:11:53;99780.37;;;8.44;61.61
60246;BME280;46107;53.356;-1.524;2023-05-02T03:14:21;99779.37;;;8.21;61.43
60246;BME280;46107;53.356;-1.524;2023-05-02T03:16:49;99785.90;;;6.91;63.75
60246;BME280;46107;53.356;-1.524;2023-05-02T03:19:16;99790.31;;;8.06;61.65
60246;BME280;46107;53.356;-1.524;2023-05-02T03:21:43;99792.81;;;7.73;61.71
60246;BME280;46107;53.356;-1.524;2023-05-02T03:24:11;99793.39;;;9.19;58.40
60246;BME280;46107;53.356;-1.524;2023-05-02T03:26:39;99788.26;;;8.17;59.66
60246;BME280;46107;53.356;-1.524;2023-05-02T03:29:06;99788.32;;;8.68;58.91
60246;BME280;46107;53.356;-1.524;2023-05-02T03:31:34;99791.37;;;6.03;67.07
60246;BME280;46107;53.356;-1.524;2023-05-02T03:34:01;99793.96;;;5.61;67.67
60246;BME280;46107;53.356;-1.524;2023-05-02T03:36:29;99792.73;;;7.74;62.72
60246;BME280;46107;53.356;-1.524;2023-05-02T03:38:57;99794.85;;;8.71;60.75
60246;BME280;46107;53.356;-1.524;2023-05-02T03:41:25;99798.99;;;8.82;60.29
60246;BME280;46107;53.356;-1.524;2023-05-02T03:43:52;99798.12;;;8.92;58.82
60246;BME280;46107;53.356;-1.524;2023-05-02T03:46:20;99798.83;;;7.95;61.81
60246;BME280;46107;53.356;-1.524;2023-05-02T03:48:48;99797.81;;;8.51;60.31
60246;BME280;46107;53.356;-1.524;2023-05-02T03:51:16;99803.36;;;9.51;57.94
60246;BME280;46107;53.356;-1.524;2023-05-02T03:53:45;99810.18;;;8.67;58.49
60246;BME280;46107;53.356;-1.524;2023-05-02T03:56:16;99815.03;;;7.77;60.42
60246;BME280;46107;53.356;-1.524;2023-05-02T03:58:44;99814.29;;;9.00;59.74
60246;BME280;46107;53.356;-1.524;2023-05-02T04:01:13;99815.87;;;8.38;59.56
60246;BME280;46107;53.356;-1.524;2023-05-02T04:03:41;99819.48;;;7.90;61.72
60246;BME280;46107;53.356;-1.524;2023-05-02T04:06:08;99817.69;;;7.69;61.94
60246;BME280;46107;53.356;-1.524;2023-05-02T04:08:36;99817.07;;;8.28;61.45
60246;BME280;46107;53.356;-1.524;2023-05-02T04:11:04;99817.66;;;8.11;60.28
60246;BME280;46107;53.356;-1.524;2023-05-02T04:13:32;99820.98;;;8.04;61.13
60246;BME280;46107;53.356;-1.524;2023-05-02T04:16:00;99821.37;;;7.83;61.35
60246;BME280;46107;53.356;-1.524;2023-05-02T04:18:28;99823.39;;;7.61;61.70
60246;BME280;46107;53.356;-1.524;2023-05-02T04:20:55;99816.16;;;7.09;63.89
60246;BME280;46107;53.356;-1.524;2023-05-02T04:23:22;99812.55;;;7.22;64.64
60246;BME280;46107;53.356;-1.524;2023-05-02T04:25:51;99813.44;;;7.74;62.56
60246;BME280;46107;53.356;-1.524;2023-05-02T04:28:19;99815.39;;;8.65;60.07
60246;BME280;46107;53.356;-1.524;2023-05-02T04:30:47;99822.07;;;8.21;60.12
60246;BME280;46107;53.356;-1.524;2023-05-02T04:33:14;99817.90;;;8.85;59.23
60246;BME280;46107;53.356;-1.524;2023-05-02T04:35:42;99820.18;;;8.60;59.47
60246;BME280;46107;53.356;-1.524;2023-05-02T04:38:10;99825.13;;;7.57;63.04
60246;BME280;46107;53.356;-1.524;2023-05-02T04:40:38;99825.84;;;7.43;62.46
60246;BME280;46107;53.356;-1.524;2023-05-02T04:43:05;99825.92;;;8.06;61.80
60246;BME280;46107;53.356;-1.524;2023-05-02T04:45:34;99828.09;;;7.70;61.59
60246;BME280;46107;53.356;-1.524;2023-05-02T04:48:02;99833.05;;;8.59;60.21
60246;BME280;46107;53.356;-1.524;2023-05-02T04:50:30;99834.98;;;7.96;61.88
60246;BME280;46107;53.356;-1.524;2023-05-02T04:53:08;99835.45;;;8.11;61.02
60246;BME280;46107;53.356;-1.524;2023-05-02T04:55:36;99838.50;;;7.34;63.19
60246;BME280;46107;53.356;-1.524;2023-05-02T04:58:04;99837.39;;;6.60;65.60
60246;BME280;46107;53.356;-1.524;2023-05-02T05:00:32;99840.97;;;7.77;63.69
60246;BME280;46107;53.356;-1.524;2023-05-02T05:03:00;99841.55;;;7.12;63.14
60246;BME280;46107;53.356;-1.524;2023-05-02T05:05:28;99833.40;;;8.77;60.76
60246;BME280;46107;53.356;-1.524;2023-05-02T05:07:56;99836.31;;;8.48;60.32
60246;BME280;46107;53.356;-1.524;2023-05-02T05:10:23;99843.16;;;8.11;61.14
60246;BME280;46107;53.356;-1.524;2023-05-02T05:12:51;99843.83;;;7.67;63.53
60246;BME280;46107;53.356;-1.524;2023-05-02T05:15:18;99849.73;;;7.25;63.83
60246;BME280;46107;53.356;-1.524;2023-05-02T05:17:45;99853.32;;;7.88;61.24
60246;BME280;46107;53.356;-1.524;2023-05-02T05:20:13;99852.42;;;8.22;59.92
60246;BME280;46107;53.356;-1.524;2023-05-02T05:22:40;99853.84;;;8.26;61.70
60246;BME280;46107;53.356;-1.524;2023-05-02T05:25:08;99855.83;;;8.02;60.91
60246;BME280;46107;53.356;-1.524;2023-05-02T05:27:36;99856.19;;;7.86;61.53
60246;BME280;46107;53.356;-1.524;2023-05-02T05:30:05;99856.22;;;8.63;60.00
60246;BME280;46107;53.356;-1.524;2023-05-02T05:32:33;99854.81;;;7.27;63.20
60246;BME280;46107;53.356;-1.524;2023-05-02T05:35:02;99855.53;;;6.93;64.47
60246;BME280;46107;53.356;-1.524;2023-05-02T05:37:29;99852.43;;;6.98;64.30
60246;BME280;46107;53.356;-1.524;2023-05-02T05:39:57;99853.47;;;6.29;66.36
60246;BME280;46107;53.356;-1.524;2023-05-02T05:42:25;99857.50;;;6.68;64.39
60246;BME280;46107;53.356;-1.524;2023-05-02T05:44:52;99859.28;;;7.03;65.28
60246;BME280;46107;53.356;-1.524;2023-05-02T05:47:20;99861.11;;;6.86;64.29
60246;BME280;46107;53.356;-1.524;2023-05-02T05:49:52;99864.57;;;7.19;62.61
60246;BME280;46107;53.356;-1.524;2023-05-02T05:52:19;99874.38;;;6.68;64.16
60246;BME280;46107;53.356;-1.524;2023-05-02T05:54:47;99879.51;;;7.95;61.01
60246;BME280;46107;53.356;-1.524;2023-05-02T05:57:15;99884.18;;;7.65;61.69
60246;BME280;46107;53.356;-1.524;2023-05-02T05:59:43;99884.30;;;7.71;61.26
60246;BME280;46107;53.356;-1.524;2023-05-02T06:02:10;99882.21;;;7.12;62.03
60246;BME280;46107;53.356;-1.524;2023-05-02T06:04:38;99887.91;;;7.92;60.98
60246;BME280;46107;53.356;-1.524;2023-05-02T06:07:05;99896.11;;;6.98;60.99
60246;BME280;46107;53.356;-1.524;2023-05-02T06:09:33;99896.47;;;8.66;58.27
60246;BME280;46107;53.356;-1.524;2023-05-02T06:12:01;99896.35;;;8.68;58.14
60246;BME280;46107;53.356;-1.524;2023-05-02T06:14:28;99905.36;;;7.55;60.74
60246;BME280;46107;53.356;-1.524;2023-05-02T06:16:58;99906.83;;;9.13;57.31
60246;BME280;46107;53.356;-1.524;2023-05-02T06:19:27;99911.77;;;9.07;57.76
60246;BME280;46107;53.356;-1.524;2023-05-02T06:21:55;99913.06;;;8.25;58.31
60246;BME280;46107;53.356;-1.524;2023-05-02T06:24:23;99912.82;;;6.37;62.72
60246;BME280;46107;53.356;-1.524;2023-05-02T06:26:51;99916.31;;;7.44;61.23
60246;BME280;46107;53.356;-1.524;2023-05-02T06:29:19;99919.43;;;8.57;59.57
60246;BME280;46107;53.356;-1.524;2023-05-02T06:31:47;99916.43;;;8.49;58.37
60246;BME280;46107;53.356;-1.524;2023-05-02T06:34:15;99912.58;;;7.63;59.38
60246;BME280;46107;53.356;-1.524;2023-05-02T06:36:42;99918.16;;;8.16;59.49
60246;BME280;46107;53.356;-1.524;2023-05-02T06:39:10;99919.39;;;6.56;63.32
60246;BME280;46107;53.356;-1.524;2023-05-02T06:41:37;99915.59;;;8.05;60.77
60246;BME280;46107;53.356;-1.524;2023-05-02T06:44:06;99917.92;;;8.26;60.40
60246;BME280;46107;53.356;-1.524;2023-05-02T06:46:33;99919.73;;;7.80;60.13
60246;BME280;46107;53.356;-1.524;2023-05-02T06:49:00;99925.12;;;7.12;61.00
60246;BME280;46107;53.356;-1.524;2023-05-02T06:51:28;99924.33;;;6.83;62.55
60246;BME280;46107;53.356;-1.524;2023-05-02T06:53:56;99925.82;;;6.41;61.55
60246;BME280;46107;53.356;-1.524;2023-05-02T06:56:23;99928.26;;;7.28;61.56
60246;BME280;46107;53.356;-1.524;2023-05-02T06:58:51;99932.81;;;7.13;61.09
60246;BME280;46107;53.356;-1.524;2023-05-02T07:01:19;99934.67;;;7.34;60.77
60246;BME280;46107;53.356;-1.524;2023-05-02T07:03:47;99933.33;;;7.98;57.89
60246;BME280;46107;53.356;-1.524;2023-05-02T07:06:14;99938.60;;;7.26;60.60
60246;BME280;46107;53.356;-1.524;2023-05-02T07:08:42;99940.70;;;7.70;58.15
60246;BME280;46107;53.356;-1.524;2023-05-02T07:11:10;99942.92;;;6.88;59.06
60246;BME280;46107;53.356;-1.524;2023-05-02T07:13:39;99948.57;;;8.36;57.58
60246;BME280;46107;53.356;-1.524;2023-05-02T07:16:07;99951.56;;;7.92;58.84
60246;BME280;46107;53.356;-1.524;2023-05-02T07:18:35;99950.20;;;8.02;57.34
60246;BME280;46107;53.356;-1.524;2023-05-02T07:21:02;99948.53;;;8.46;56.89
60246;BME280;46107;53.356;-1.524;2023-05-02T07:23:32;99945.44;;;7.06;60.64
60246;BME280;46107;53.356;-1.524;2023-05-02T07:26:01;99953.11;;;6.58;61.37
60246;BME280;46107;53.356;-1.524;2023-05-02T07:28:29;99956.15;;;7.00;59.40
60246;BME280;46107;53.356;-1.524;2023-05-02T07:30:57;99960.74;;;6.70;61.88
60246;BME280;46107;53.356;-1.524;2023-05-02T07:33:24;99953.19;;;7.08;61.06
60246;BME280;46107;53.356;-1.524;2023-05-02T07:35:52;99950.32;;;7.69;59.19
60246;BME280;46107;53.356;-1.524;2023-05-02T07:38:23;99949.60;;;7.91;61.08
60246;BME280;46107;53.356;-1.524;2023-05-02T07:40:52;99959.52;;;8.00;60.39
60246;BME280;46107;53.356;-1.524;2023-05-02T07:43:19;99963.87;;;7.32;59.32
60246;BME280;46107;53.356;-1.524;2023-05-02T07:45:47;99966.90;;;8.01;59.54
60246;BME280;46107;53.356;-1.524;2023-05-02T07:48:15;99959.95;;;8.78;56.77
60246;BME280;46107;53.356;-1.524;2023-05-02T07:50:43;99952.30;;;8.88;57.25
60246;BME280;46107;53.356;-1.524;2023-05-02T07:53:11;99952.77;;;8.68;57.39
60246;BME280;46107;53.356;-1.524;2023-05-02T07:55:38;99952.94;;;8.91;56.16
60246;BME280;46107;53.356;-1.524;2023-05-02T07:58:06;99955.96;;;8.63;56.34
60246;BME280;46107;53.356;-1.524;2023-05-02T08:00:33;99957.68;;;9.62;54.60
60246;BME280;46107;53.356;-1.524;2023-05-02T08:03:01;99957.00;;;8.58;57.42
60246;BME280;46107;53.356;-1.524;2023-05-02T08:05:30;99963.80;;;7.16;58.99
60246;BME280;46107;53.356;-1.524;2023-05-02T08:07:59;99967.52;;;7.73;60.19
60246;BME280;46107;53.356;-1.524;2023-05-02T08:10:26;99966.92;;;8.05;57.58
60246;BME280;46107;53.356;-1.524;2023-05-02T08:12:54;99965.94;;;8.44;57.05
60246;BME280;46107;53.356;-1.524;2023-05-02T08:15:21;99968.11;;;7.24;58.96
60246;BME280;46107;53.356;-1.524;2023-05-02T08:17:49;99970.91;;;7.17;60.09
60246;BME280;46107;53.356;-1.524;2023-05-02T08:20:17;99975.16;;;6.44;60.73
60246;BME280;46107;53.356;-1.524;2023-05-02T08:22:44;99974.60;;;7.49;58.11
60246;BME280;46107;53.356;-1.524;2023-05-02T08:25:12;99973.91;;;7.98;57.43
60246;BME280;46107;53.356;-1.524;2023-05-02T08:27:39;99977.06;;;7.29;58.78
60246;BME280;46107;53.356;-1.524;2023-05-02T08:30:08;99981.57;;;8.01;55.69
60246;BME280;46107;53.356;-1.524;2023-05-02T08:32:36;99981.41;;;6.65;59.10
60246;BME280;46107;53.356;-1.524;2023-05-02T08:35:04;99982.43;;;7.70;58.89
60246;BME280;46107;53.356;-1.524;2023-05-02T08:37:32;99980.56;;;7.69;55.04
60246;BME280;46107;53.356;-1.524;2023-05-02T08:40:00;99976.72;;;8.03;55.60
60246;BME280;46107;53.356;-1.524;2023-05-02T08:42:28;99972.74;;;7.25;56.82
60246;BME280;46107;53.356;-1.524;2023-05-02T08:45:00;99971.69;;;8.01;57.42
60246;BME280;46107;53.356;-1.524;2023-05-02T08:47:29;99970.95;;;7.30;56.94
60246;BME280;46107;53.356;-1.524;2023-05-02T08:49:58;99968.78;;;8.96;54.03
60246;BME280;46107;53.356;-1.524;2023-05-02T08:52:27;99971.03;;;7.62;55.04
60246;BME280;46107;53.356;-1.524;2023-05-02T08:54:55;99972.18;;;8.64;55.52
60246;BME280;46107;53.356;-1.524;2023-05-02T08:57:22;99974.53;;;8.32;53.06
60246;BME280;46107;53.356;-1.524;2023-05-02T08:59:50;99977.82;;;8.11;55.50
60246;BME280;46107;53.356;-1.524;2023-05-02T09:02:25;99975.54;;;8.62;54.55
60246;BME280;46107;53.356;-1.524;2023-05-02T09:05:02;99983.00;;;8.28;55.73
60246;BME280;46107;53.356;-1.524;2023-05-02T09:07:43;99976.80;;;9.35;52.91
60246;BME280;46107;53.356;-1.524;2023-05-02T09:10:11;99975.93;;;9.10;52.95
60246;BME280;46107;53.356;-1.524;2023-05-02T09:12:39;99980.12;;;9.48;51.39
60246;BME280;46107;53.356;-1.524;2023-05-02T09:15:10;99977.65;;;8.72;53.15
60246;BME280;46107;53.356;-1.524;2023-05-02T09:17:41;99979.97;;;9.71;51.25
60246;BME280;46107;53.356;-1.524;2023-05-02T09:20:10;99977.75;;;8.80;54.54
60246;BME280;46107;53.356;-1.524;2023-05-02T09:22:51;99977.60;;;8.84;53.81
60246;BME280;46107;53.356;-1.524;2023-05-02T09:25:19;99978.37;;;7.73;54.83
60246;BME280;46107;53.356;-1.524;2023-05-02T09:27:49;99978.56;;;7.74;56.18
60246;BME280;46107;53.356;-1.524;2023-05-02T09:30:21;99982.29;;;9.28;54.00
60246;BME280;46107;53.356;-1.524;2023-05-02T09:32:50;99984.28;;;9.23;53.59
60246;BME280;46107;53.356;-1.524;2023-05-02T09:35:18;99979.90;;;8.60;52.47
60246;BME280;46107;53.356;-1.524;2023-05-02T09:37:45;99978.60;;;8.78;54.71
60246;BME280;46107;53.356;-1.524;2023-05-02T09:40:13;99979.19;;;9.42;51.81
60246;BME280;46107;53.356;-1.524;2023-05-02T09:42:41;99983.61;;;9.59;52.07
60246;BME280;46107;53.356;-1.524;2023-05-02T09:45:19;99986.83;;;9.46;52.66
60246;BME280;46107;53.356;-1.524;2023-05-02T09:47:47;99985.72;;;9.87;49.94
60246;BME280;46107;53.356;-1.524;2023-05-02T09:50:47;99984.51;;;10.04;49.62
60246;BME280;46107;53.356;-1.524;2023-05-02T09:53:14;99986.05;;;10.33;49.44
60246;BME280;46107;53.356;-1.524;2023-05-02T09:55:43;99990.29;;;9.96;52.05
60246;BME280;46107;53.356;-1.524;2023-05-02T09:58:20;99995.68;;;10.62;50.37
60246;BME280;46107;53.356;-1.524;2023-05-02T10:00:49;100001.01;;;10.28;51.20
60246;BME280;46107;53.356;-1.524;2023-05-02T10:03:18;100000.76;;;10.05;50.70
60246;BME280;46107;53.356;-1.524;2023-05-02T10:05:46;99990.98;;;11.42;47.55
60246;BME280;46107;53.356;-1.524;2023-05-02T10:08:17;99996.01;;;11.06;47.69
60246;BME280;46107;53.356;-1.524;2023-05-02T10:10:50;100006.86;;;10.77;48.11
60246;BME280;46107;53.356;-1.524;2023-05-02T10:13:20;100007.37;;;11.09;47.19
60246;BME280;46107;53.356;-1.524;2023-05-02T10:15:49;100004.27;;;11.56;46.82
60246;BME280;46107;53.356;-1.524;2023-05-02T10:18:26;100008.31;;;11.13;48.11
60246;BME280;46107;53.356;-1.524;2023-05-02T10:20:57;100018.87;;;10.89;47.35
60246;BME280;46107;53.356;-1.524;2023-05-02T10:23:26;100016.75;;;12.10;46.30
60246;BME280;46107;53.356;-1.524;2023-05-02T10:25:56;100027.41;;;10.41;47.89
60246;BME280;46107;53.356;-1.524;2023-05-02T10:28:25;100027.48;;;10.81;48.07
60246;BME280;46107;53.356;-1.524;2023-05-02T10:30:53;100016.39;;;11.84;43.38
60246;BME280;46107;53.356;-1.524;2023-05-02T10:33:22;100024.20;;;11.61;45.23
60246;BME280;46107;53.356;-1.524;2023-05-02T10:35:49;100028.95;;;11.78;45.08
60246;BME280;46107;53.356;-1.524;2023-05-02T10:38:20;100031.73;;;11.68;46.86
60246;BME280;46107;53.356;-1.524;2023-05-02T10:40:53;100031.88;;;11.99;45.58
60246;BME280;46107;53.356;-1.524;2023-05-02T10:43:24;100034.81;;;11.24;43.89
60246;BME280;46107;53.356;-1.524;2023-05-02T10:45:53;100038.60;;;12.34;44.83
60246;BME280;46107;53.356;-1.524;2023-05-02T10:48:22;100034.89;;;12.03;45.88
60246;BME280;46107;53.356;-1.524;2023-05-02T10:50:51;100048.18;;;10.99;47.21
60246;BME280;46107;53.356;-1.524;2023-05-02T10:53:23;100048.04;;;9.84;50.05
60246;BME280;46107;53.356;-1.524;2023-05-02T10:56:23;100040.53;;;11.15;49.55
60246;BME280;46107;53.356;-1.524;2023-05-02T10:58:51;100040.19;;;11.58;47.89
60246;BME280;46107;53.356;-1.524;2023-05-02T11:01:36;100042.01;;;11.57;46.31
60246;BME280;46107;53.356;-1.524;2023-05-02T11:04:05;100035.16;;;12.45;46.94
60246;BME280;46107;53.356;-1.524;2023-05-02T11:06:34;100029.17;;;11.57;48.32
60246;BME280;46107;53.356;-1.524;2023-05-02T11:09:35;100027.70;;;10.95;47.93
60246;BME280;46107;53.356;-1.524;2023-05-02T11:12:03;100019.19;;;11.53;47.93
60246;BME280;46107;53.356;-1.524;2023-05-02T11:14:47;100013.68;;;11.94;44.84
60246;BME280;46107;53.356;-1.524;2023-05-02T11:17:16;100012.48;;;12.82;45.16
60246;BME280;46107;53.356;-1.524;2023-05-02T11:20:18;100007.53;;;12.81;44.95
60246;BME280;46107;53.356;-1.524;2023-05-02T11:22:46;100010.86;;;11.47;47.02
60246;BME280;46107;53.356;-1.524;2023-05-02T11:25:29;100013.22;;;12.75;44.09
60246;BME280;46107;53.356;-1.524;2023-05-02T11:27:57;100024.74;;;11.81;47.23
60246;BME280;46107;53.356;-1.524;2023-05-02T11:30:42;100028.04;;;11.69;46.25
60246;BME280;46107;53.356;-1.524;2023-05-02T11:33:12;100028.87;;;12.32;46.96
60246;BME280;46107;53.356;-1.524;2023-05-02T11:35:42;100034.69;;;12.67;44.61
60246;BME280;46107;53.356;-1.524;2023-05-02T11:38:10;100032.74;;;12.80;46.13
60246;BME280;46107;53.356;-1.524;2023-05-02T11:40:38;100034.77;;;13.25;44.46
60246;BME280;46107;53.356;-1.524;2023-05-02T11:43:16;100041.55;;;12.54;44.28
60246;BME280;46107;53.356;-1.524;2023-05-02T11:45:44;100044.56;;;12.01;47.25
60246;BME280;46107;53.356;-1.524;2023-05-02T11:48:14;100040.65;;;11.21;47.89
60246;BME280;46107;53.356;-1.524;2023-05-02T11:50:44;100041.81;;;13.00;44.59
60246;BME280;46107;53.356;-1.524;2023-05-02T11:53:13;100040.00;;;12.23;44.39
60246;BME280;46107;53.356;-1.524;2023-05-02T11:55:50;100035.94;;;11.81;47.39
60246;BME280;46107;53.356;-1.524;2023-05-02T11:58:19;100038.93;;;12.79;43.81
60246;BME280;46107;53.356;-1.524;2023-05-02T12:00:47;100039.48;;;12.52;46.89
60246;BME280;46107;53.356;-1.524;2023-05-02T12:03:21;100032.96;;;12.55;46.44
60246;BME280;46107;53.356;-1.524;2023-05-02T12:05:49;100032.57;;;14.14;44.03
60246;BME280;46107;53.356;-1.524;2023-05-02T12:08:19;100040.13;;;12.84;46.30
60246;BME280;46107;53.356;-1.524;2023-05-02T12:10:48;100039.01;;;13.14;44.63
60246;BME280;46107;53.356;-1.524;2023-05-02T12:13:16;100041.92;;;12.44;45.36
60246;BME280;46107;53.356;-1.524;2023-05-02T12:15:45;100044.72;;;11.57;47.41
60246;BME280;46107;53.356;-1.524;2023-05-02T12:18:13;100048.04;;;12.82;45.22
60246;BME280;46107;53.356;-1.524;2023-05-02T12:20:42;100044.11;;;13.20;45.27
60246;BME280;46107;53.356;-1.524;2023-05-02T12:23:10;100037.27;;;12.68;45.68
60246;BME280;46107;53.356;-1.524;2023-05-02T12:25:40;100034.53;;;13.37;44.71
60246;BME280;46107;53.356;-1.524;2023-05-02T12:28:08;100037.48;;;12.28;45.14
60246;BME280;46107;53.356;-1.524;2023-05-02T12:30:37;100035.72;;;13.12;46.10
60246;BME280;46107;53.356;-1.524;2023-05-02T12:33:06;100034.84;;;12.15;45.69
60246;BME280;46107;53.356;-1.524;2023-05-02T12:35:34;100032.20;;;12.34;45.55
60246;BME280;46107;53.356;-1.524;2023-05-02T12:38:18;100032.10;;;12.98;45.36
60246;BME280;46107;53.356;-1.524;2023-05-02T12:40:48;100032.12;;;11.99;46.02
60246;BME280;46107;53.356;-1.524;2023-05-02T12:43:16;100035.41;;;12.65;45.95
60246;BME280;46107;53.356;-1.524;2023-05-02T12:45:44;100032.41;;;13.26;43.73
60246;BME280;46107;53.356;-1.524;2023-05-02T12:48:22;100032.42;;;14.49;42.39
60246;BME280;46107;53.356;-1.524;2023-05-02T12:50:51;100031.86;;;12.33;44.14
60246;BME280;46107;53.356;-1.524;2023-05-02T12:53:38;100028.66;;;12.54;44.23
60246;BME280;46107;53.356;-1.524;2023-05-02T12:56:06;100028.21;;;12.23;45.98
60246;BME280;46107;53.356;-1.524;2023-05-02T12:58:42;100035.21;;;12.78;45.67
60246;BME280;46107;53.356;-1.524;2023-05-02T13:01:11;100041.48;;;12.70;45.07
60246;BME280;46107;53.356;-1.524;2023-05-02T13:03:39;100040.09;;;12.73;45.15
60246;BME280;46107;53.356;-1.524;2023-05-02T13:06:07;100041.02;;;13.32;43.95
60246;BME280;46107;53.356;-1.524;2023-05-02T13:08:35;100044.42;;;12.49;45.37
60246;BME280;46107;53.356;-1.524;2023-05-02T13:11:03;100049.22;;;11.94;44.44